sensor_id;sensor_type;location;lat;lon;timestamp;P1;durP1;ratioP1;P2;durP2;ratioP2
70927;SDS011;58587;53.034;18.576;2022-09-09T09:52:54;39.92;;;16.70;;
70927;SDS011;58587;53.034;18.576;2022-09-09T09:55:30;35.97;;;17.63;;
70927;SDS011;58587;53.034;18.576;2022-09-09T09:58:02;35.22;;;18.60;;
70927;SDS011;58587;53.034;18.576;2022-09-09T10:00:29;33.17;;;17.23;;
70927;SDS011;58587;53.034;18.576;2022-09-09T10:02:58;34.47;;;16.70;;
70927;SDS011;58587;53.034;18.576;2022-09-09T10:05:44;34.63;;;17.25;;
70927;SDS011;58587;53.034;18.576;2022-09-09T10:08:23;39.13;;;20.05;;
70927;SDS011;58587;53.034;18.576;2022-09-09T10:31:00;36.00;;;19.77;;
70927;SDS011;58587;53.034;18.576;2022-09-09T10:36:47;40.45;;;20.55;;
70927;SDS011;58587;53.034;18.576;2022-09-09T10:39:36;44.75;;;20.52;;
70927;SDS011;58587;53.034;18.576;2022-09-09T10:47:48;43.80;;;19.77;;
70927;SDS011;58587;53.034;18.576;2022-09-09T10:50:48;41.97;;;19.70;;
70927;SDS011;58587;53.034;18.576;2022-09-09T10:56:48;42.60;;;22.33;;
70927;SDS011;58587;53.034;18.576;2022-09-09T10:59:25;41.97;;;21.37;;
70927;SDS011;58587;53.034;18.576;2022-09-09T11:02:17;40.05;;;19.27;;
70927;SDS011;58587;53.034;18.576;2022-09-09T11:05:04;37.60;;;20.17;;
70927;SDS011;58587;53.034;18.576;2022-09-09T11:07:44;44.47;;;21.52;;
70927;SDS011;58587;53.034;18.576;2022-09-09T11:13:23;92.53;;;24.13;;
70927;SDS011;58587;53.034;18.576;2022-09-09T11:16:04;52.28;;;24.17;;
70927;SDS011;58587;53.034;18.576;2022-09-09T11:18:49;40.13;;;18.63;;
70927;SDS011;58587;53.034;18.576;2022-09-09T11:21:34;44.22;;;23.70;;
70927;SDS011;58587;53.034;18.576;2022-09-09T11:24:32;45.53;;;22.45;;
70927;SDS011;58587;53.034;18.576;2022-09-09T11:27:18;52.43;;;26.70;;
70927;SDS011;58587;53.034;18.576;2022-09-09T11:36:19;34.90;;;17.75;;
70927;SDS011;58587;53.034;18.576;2022-09-09T11:38:57;38.67;;;19.70;;
70927;SDS011;58587;53.034;18.576;2022-09-09T11:41:43;45.03;;;22.73;;
70927;SDS011;58587;53.034;18.576;2022-09-09T11:44:23;36.75;;;20.23;;
70927;SDS011;58587;53.034;18.576;2022-09-09T11:46:58;38.88;;;18.95;;
70927;SDS011;58587;53.034;18.576;2022-09-09T11:49:40;43.17;;;22.55;;
70927;SDS011;58587;53.034;18.576;2022-09-09T11:52:23;42.27;;;23.60;;
70927;SDS011;58587;53.034;18.576;2022-09-09T11:54:51;35.92;;;18.67;;
70927;SDS011;58587;53.034;18.576;2022-09-09T11:57:24;37.88;;;19.60;;
70927;SDS011;58587;53.034;18.576;2022-09-09T11:59:59;35.25;;;20.10;;
70927;SDS011;58587;53.034;18.576;2022-09-09T12:02:31;32.83;;;19.27;;
70927;SDS011;58587;53.034;18.576;2022-09-09T12:05:02;32.93;;;17.67;;
70927;SDS011;58587;53.034;18.576;2022-09-09T12:13:20;29.20;;;17.02;;
70927;SDS011;58587;53.034;18.576;2022-09-09T12:15:52;29.00;;;17.70;;
70927;SDS011;58587;53.034;18.576;2022-09-09T12:18:38;28.02;;;16.63;;
70927;SDS011;58587;53.034;18.576;2022-09-09T12:21:13;29.95;;;17.92;;
70927;SDS011;58587;53.034;18.576;2022-09-09T12:24:06;27.25;;;15.63;;
70927;SDS011;58587;53.034;18.576;2022-09-09T12:26:40;29.58;;;16.92;;
70927;SDS011;58587;53.034;18.576;2022-09-09T12:37:24;25.92;;;15.75;;
70927;SDS011;58587;53.034;18.576;2022-09-09T12:40:02;27.05;;;16.00;;
70927;SDS011;58587;53.034;18.576;2022-09-09T12:42:51;30.50;;;19.67;;
70927;SDS011;58587;53.034;18.576;2022-09-09T12:47:45;25.73;;;17.47;;
70927;SDS011;58587;53.034;18.576;2022-09-09T12:50:21;27.27;;;16.33;;
70927;SDS011;58587;53.034;18.576;2022-09-09T12:52:51;21.48;;;14.82;;
70927;SDS011;58587;53.034;18.576;2022-09-09T12:55:24;26.77;;;16.63;;
70927;SDS011;58587;53.034;18.576;2022-09-09T12:57:52;24.92;;;15.50;;
70927;SDS011;58587;53.034;18.576;2022-09-09T13:00:19;24.63;;;15.93;;
70927;SDS011;58587;53.034;18.576;2022-09-09T13:02:51;26.38;;;15.30;;
70927;SDS011;58587;53.034;18.576;2022-09-09T13:05:20;26.05;;;14.93;;
70927;SDS011;58587;53.034;18.576;2022-09-09T13:07:49;24.30;;;14.70;;
70927;SDS011;58587;53.034;18.576;2022-09-09T13:10:23;22.20;;;14.13;;
70927;SDS011;58587;53.034;18.576;2022-09-09T13:12:51;23.17;;;14.32;;
70927;SDS011;58587;53.034;18.576;2022-09-09T13:15:21;22.20;;;14.40;;
70927;SDS011;58587;53.034;18.576;2022-09-09T13:17:51;20.90;;;14.02;;
70927;SDS011;58587;53.034;18.576;2022-09-09T13:20:20;20.63;;;12.60;;
70927;SDS011;58587;53.034;18.576;2022-09-09T13:22:47;20.40;;;12.68;;
70927;SDS011;58587;53.034;18.576;2022-09-09T13:25:22;19.40;;;13.35;;
70927;SDS011;58587;53.034;18.576;2022-09-09T13:28:18;21.57;;;13.20;;
70927;SDS011;58587;53.034;18.576;2022-09-09T13:30:54;23.35;;;13.63;;
70927;SDS011;58587;53.034;18.576;2022-09-09T13:33:24;25.02;;;15.10;;
70927;SDS011;58587;53.034;18.576;2022-09-09T13:36:02;21.73;;;14.00;;
70927;SDS011;58587;53.034;18.576;2022-09-09T13:38:33;23.13;;;14.48;;
70927;SDS011;58587;53.034;18.576;2022-09-09T13:41:05;20.53;;;12.70;;
70927;SDS011;58587;53.034;18.576;2022-09-09T13:43:43;21.50;;;13.50;;
70927;SDS011;58587;53.034;18.576;2022-09-09T13:51:37;22.35;;;12.88;;
70927;SDS011;58587;53.034;18.576;2022-09-09T13:54:06;19.17;;;12.17;;
70927;SDS011;58587;53.034;18.576;2022-09-09T13:56:34;21.50;;;12.18;;
70927;SDS011;58587;53.034;18.576;2022-09-09T13:59:00;19.98;;;12.95;;
70927;SDS011;58587;53.034;18.576;2022-09-09T14:01:26;21.17;;;13.45;;
70927;SDS011;58587;53.034;18.576;2022-09-09T14:03:52;18.73;;;12.05;;
70927;SDS011;58587;53.034;18.576;2022-09-09T14:06:18;18.37;;;12.30;;
70927;SDS011;58587;53.034;18.576;2022-09-09T14:08:44;19.70;;;12.02;;
70927;SDS011;58587;53.034;18.576;2022-09-09T14:11:11;16.33;;;11.40;;
70927;SDS011;58587;53.034;18.576;2022-09-09T14:13:38;18.35;;;12.57;;
70927;SDS011;58587;53.034;18.576;2022-09-09T14:16:03;18.60;;;13.20;;
70927;SDS011;58587;53.034;18.576;2022-09-09T14:18:29;20.83;;;13.07;;
70927;SDS011;58587;53.034;18.576;2022-09-09T14:20:54;19.53;;;12.77;;
70927;SDS011;58587;53.034;18.576;2022-09-09T14:23:20;17.45;;;13.15;;
70927;SDS011;58587;53.034;18.576;2022-09-09T14:25:47;18.77;;;12.70;;
70927;SDS011;58587;53.034;18.576;2022-09-09T14:28:14;18.38;;;12.70;;
70927;SDS011;58587;53.034;18.576;2022-09-09T14:30:40;19.10;;;13.15;;
70927;SDS011;58587;53.034;18.576;2022-09-09T14:33:07;20.35;;;12.75;;
70927;SDS011;58587;53.034;18.576;2022-09-09T14:35:34;21.92;;;17.67;;
70927;SDS011;58587;53.034;18.576;2022-09-09T14:38:01;19.33;;;14.30;;
70927;SDS011;58587;53.034;18.576;2022-09-09T14:40:27;18.00;;;12.43;;
70927;SDS011;58587;53.034;18.576;2022-09-09T14:42:53;17.45;;;12.50;;
70927;SDS011;58587;53.034;18.576;2022-09-09T14:45:18;17.40;;;13.13;;
70927;SDS011;58587;53.034;18.576;2022-09-09T14:47:45;17.70;;;12.20;;
70927;SDS011;58587;53.034;18.576;2022-09-09T14:50:10;18.20;;;12.13;;
70927;SDS011;58587;53.034;18.576;2022-09-09T14:52:37;18.17;;;12.85;;
70927;SDS011;58587;53.034;18.576;2022-09-09T14:55:03;19.33;;;11.87;;
70927;SDS011;58587;53.034;18.576;2022-09-09T14:57:28;17.60;;;12.27;;
70927;SDS011;58587;53.034;18.576;2022-09-09T14:59:54;18.07;;;12.83;;
70927;SDS011;58587;53.034;18.576;2022-09-09T15:02:19;21.40;;;13.93;;
70927;SDS011;58587;53.034;18.576;2022-09-09T15:04:44;18.67;;;14.70;;
70927;SDS011;58587;53.034;18.576;2022-09-09T15:07:10;17.53;;;12.13;;
70927;SDS011;58587;53.034;18.576;2022-09-09T15:09:36;18.08;;;12.40;;
70927;SDS011;58587;53.034;18.576;2022-09-09T15:12:02;20.73;;;13.80;;
70927;SDS011;58587;53.034;18.576;2022-09-09T15:14:27;19.20;;;11.75;;
70927;SDS011;58587;53.034;18.576;2022-09-09T15:16:53;16.17;;;11.70;;
70927;SDS011;58587;53.034;18.576;2022-09-09T15:19:18;20.03;;;14.60;;
70927;SDS011;58587;53.034;18.576;2022-09-09T15:21:43;20.23;;;14.10;;
70927;SDS011;58587;53.034;18.576;2022-09-09T15:24:09;18.70;;;12.95;;
70927;SDS011;58587;53.034;18.576;2022-09-09T15:26:35;18.87;;;12.23;;
70927;SDS011;58587;53.034;18.576;2022-09-09T15:29:03;19.13;;;12.95;;
70927;SDS011;58587;53.034;18.576;2022-09-09T15:31:30;16.67;;;12.60;;
70927;SDS011;58587;53.034;18.576;2022-09-09T15:33:57;17.50;;;12.70;;
70927;SDS011;58587;53.034;18.576;2022-09-09T15:38:59;19.35;;;13.07;;
70927;SDS011;58587;53.034;18.576;2022-09-09T15:41:26;20.38;;;13.23;;
70927;SDS011;58587;53.034;18.576;2022-09-09T15:43:55;18.70;;;13.60;;
70927;SDS011;58587;53.034;18.576;2022-09-09T15:46:26;21.15;;;13.52;;
70927;SDS011;58587;53.034;18.576;2022-09-09T15:49:05;20.17;;;13.52;;
70927;SDS011;58587;53.034;18.576;2022-09-09T15:51:34;22.05;;;13.68;;
70927;SDS011;58587;53.034;18.576;2022-09-09T15:53:59;22.23;;;14.50;;
70927;SDS011;58587;53.034;18.576;2022-09-09T15:56:25;23.00;;;14.35;;
70927;SDS011;58587;53.034;18.576;2022-09-09T15:58:53;24.52;;;14.95;;
70927;SDS011;58587;53.034;18.576;2022-09-09T16:01:20;25.87;;;15.30;;
70927;SDS011;58587;53.034;18.576;2022-09-09T16:03:46;27.10;;;15.63;;
70927;SDS011;58587;53.034;18.576;2022-09-09T16:06:15;23.23;;;15.13;;
70927;SDS011;58587;53.034;18.576;2022-09-09T16:08:43;25.58;;;14.52;;
70927;SDS011;58587;53.034;18.576;2022-09-09T16:13:40;26.65;;;15.93;;
70927;SDS011;58587;53.034;18.576;2022-09-09T16:16:06;24.83;;;15.60;;
70927;SDS011;58587;53.034;18.576;2022-09-09T16:18:51;25.37;;;16.13;;
70927;SDS011;58587;53.034;18.576;2022-09-09T16:21:19;24.10;;;15.63;;
70927;SDS011;58587;53.034;18.576;2022-09-09T16:23:55;25.42;;;16.33;;
70927;SDS011;58587;53.034;18.576;2022-09-09T16:26:22;27.63;;;16.57;;
70927;SDS011;58587;53.034;18.576;2022-09-09T16:28:48;29.20;;;17.40;;
70927;SDS011;58587;53.034;18.576;2022-09-09T16:31:18;24.70;;;15.52;;
70927;SDS011;58587;53.034;18.576;2022-09-09T16:33:45;25.05;;;15.75;;
70927;SDS011;58587;53.034;18.576;2022-09-09T16:36:18;25.60;;;15.68;;
70927;SDS011;58587;53.034;18.576;2022-09-09T16:38:45;23.53;;;15.87;;
70927;SDS011;58587;53.034;18.576;2022-09-09T16:41:11;28.33;;;16.65;;
70927;SDS011;58587;53.034;18.576;2022-09-09T16:43:38;23.80;;;16.60;;
70927;SDS011;58587;53.034;18.576;2022-09-09T16:46:12;24.70;;;15.93;;
70927;SDS011;58587;53.034;18.576;2022-09-09T16:48:42;28.02;;;16.58;;
70927;SDS011;58587;53.034;18.576;2022-09-09T16:51:11;24.60;;;15.27;;
70927;SDS011;58587;53.034;18.576;2022-09-09T16:53:39;24.20;;;15.35;;
70927;SDS011;58587;53.034;18.576;2022-09-09T16:56:07;26.10;;;16.30;;
70927;SDS011;58587;53.034;18.576;2022-09-09T16:58:35;26.37;;;17.53;;
70927;SDS011;58587;53.034;18.576;2022-09-09T17:01:02;27.08;;;16.80;;
70927;SDS011;58587;53.034;18.576;2022-09-09T17:03:28;25.42;;;15.48;;
70927;SDS011;58587;53.034;18.576;2022-09-09T17:05:54;30.38;;;17.38;;
70927;SDS011;58587;53.034;18.576;2022-09-09T17:08:19;24.40;;;15.90;;
70927;SDS011;58587;53.034;18.576;2022-09-09T17:10:45;25.23;;;15.50;;
70927;SDS011;58587;53.034;18.576;2022-09-09T17:13:10;25.50;;;15.90;;
70927;SDS011;58587;53.034;18.576;2022-09-09T17:15:40;24.13;;;15.97;;
70927;SDS011;58587;53.034;18.576;2022-09-09T17:18:07;25.35;;;16.13;;
70927;SDS011;58587;53.034;18.576;2022-09-09T17:20:37;27.55;;;16.65;;
70927;SDS011;58587;53.034;18.576;2022-09-09T17:23:04;25.13;;;16.20;;
70927;SDS011;58587;53.034;18.576;2022-09-09T17:25:31;23.55;;;15.80;;
70927;SDS011;58587;53.034;18.576;2022-09-09T17:27:56;25.10;;;15.67;;
70927;SDS011;58587;53.034;18.576;2022-09-09T17:30:22;26.58;;;16.92;;
70927;SDS011;58587;53.034;18.576;2022-09-09T17:32:49;26.83;;;16.88;;
70927;SDS011;58587;53.034;18.576;2022-09-09T17:35:14;26.50;;;16.57;;
70927;SDS011;58587;53.034;18.576;2022-09-09T17:37:40;28.60;;;18.10;;
70927;SDS011;58587;53.034;18.576;2022-09-09T17:40:06;30.67;;;17.83;;
70927;SDS011;58587;53.034;18.576;2022-09-09T17:42:32;26.25;;;16.40;;
70927;SDS011;58587;53.034;18.576;2022-09-09T17:44:57;28.93;;;16.97;;
70927;SDS011;58587;53.034;18.576;2022-09-09T17:47:23;36.53;;;22.63;;
70927;SDS011;58587;53.034;18.576;2022-09-09T17:49:48;31.77;;;19.57;;
70927;SDS011;58587;53.034;18.576;2022-09-09T17:52:13;26.40;;;17.60;;
70927;SDS011;58587;53.034;18.576;2022-09-09T17:54:40;26.73;;;17.10;;
70927;SDS011;58587;53.034;18.576;2022-09-09T17:57:06;28.90;;;17.50;;
70927;SDS011;58587;53.034;18.576;2022-09-09T17:59:32;29.97;;;18.03;;
70927;SDS011;58587;53.034;18.576;2022-09-09T18:01:57;30.93;;;18.30;;
70927;SDS011;58587;53.034;18.576;2022-09-09T18:04:23;30.90;;;17.95;;
70927;SDS011;58587;53.034;18.576;2022-09-09T18:06:49;30.20;;;19.47;;
70927;SDS011;58587;53.034;18.576;2022-09-09T18:09:20;30.67;;;19.02;;
70927;SDS011;58587;53.034;18.576;2022-09-09T18:11:49;27.42;;;18.00;;
70927;SDS011;58587;53.034;18.576;2022-09-09T18:14:18;29.75;;;19.80;;
70927;SDS011;58587;53.034;18.576;2022-09-09T18:16:48;29.27;;;16.77;;
70927;SDS011;58587;53.034;18.576;2022-09-09T18:19:15;29.40;;;18.58;;
70927;SDS011;58587;53.034;18.576;2022-09-09T18:21:43;32.53;;;20.58;;
70927;SDS011;58587;53.034;18.576;2022-09-09T18:24:10;33.55;;;19.77;;
70927;SDS011;58587;53.034;18.576;2022-09-09T18:26:37;38.80;;;22.88;;
70927;SDS011;58587;53.034;18.576;2022-09-09T18:29:05;29.93;;;18.63;;
70927;SDS011;58587;53.034;18.576;2022-09-09T18:31:33;32.95;;;21.25;;
70927;SDS011;58587;53.034;18.576;2022-09-09T18:34:00;34.03;;;22.17;;
70927;SDS011;58587;53.034;18.576;2022-09-09T18:36:32;29.13;;;18.67;;
70927;SDS011;58587;53.034;18.576;2022-09-09T18:39:00;33.13;;;19.52;;
70927;SDS011;58587;53.034;18.576;2022-09-09T18:41:28;31.10;;;19.10;;
70927;SDS011;58587;53.034;18.576;2022-09-09T18:43:57;33.08;;;20.33;;
70927;SDS011;58587;53.034;18.576;2022-09-09T18:46:24;31.27;;;20.48;;
70927;SDS011;58587;53.034;18.576;2022-09-09T18:48:51;31.67;;;20.38;;
70927;SDS011;58587;53.034;18.576;2022-09-09T18:51:18;35.70;;;20.43;;
70927;SDS011;58587;53.034;18.576;2022-09-09T18:54:04;33.67;;;22.02;;
70927;SDS011;58587;53.034;18.576;2022-09-09T18:56:33;33.13;;;21.35;;
70927;SDS011;58587;53.034;18.576;2022-09-09T18:59:00;35.13;;;21.55;;
70927;SDS011;58587;53.034;18.576;2022-09-09T19:01:27;36.67;;;22.40;;
70927;SDS011;58587;53.034;18.576;2022-09-09T19:03:53;33.30;;;21.13;;
70927;SDS011;58587;53.034;18.576;2022-09-09T19:06:21;35.75;;;21.45;;
70927;SDS011;58587;53.034;18.576;2022-09-09T19:08:49;41.42;;;23.25;;
70927;SDS011;58587;53.034;18.576;2022-09-09T19:11:17;41.30;;;23.27;;
70927;SDS011;58587;53.034;18.576;2022-09-09T19:13:48;45.63;;;24.45;;
70927;SDS011;58587;53.034;18.576;2022-09-09T19:16:22;43.80;;;24.60;;
70927;SDS011;58587;53.034;18.576;2022-09-09T19:18:49;42.70;;;24.52;;
70927;SDS011;58587;53.034;18.576;2022-09-09T19:21:20;47.05;;;25.75;;
70927;SDS011;58587;53.034;18.576;2022-09-09T19:23:48;40.38;;;23.52;;
70927;SDS011;58587;53.034;18.576;2022-09-09T19:26:24;42.58;;;25.00;;
70927;SDS011;58587;53.034;18.576;2022-09-09T19:28:50;44.03;;;25.13;;
70927;SDS011;58587;53.034;18.576;2022-09-09T19:31:16;47.85;;;26.95;;
70927;SDS011;58587;53.034;18.576;2022-09-09T19:33:43;49.58;;;27.02;;
70927;SDS011;58587;53.034;18.576;2022-09-09T19:36:11;45.55;;;25.38;;
70927;SDS011;58587;53.034;18.576;2022-09-09T19:38:39;46.57;;;26.33;;
70927;SDS011;58587;53.034;18.576;2022-09-09T19:41:06;50.33;;;27.35;;
70927;SDS011;58587;53.034;18.576;2022-09-09T19:43:33;47.97;;;26.85;;
70927;SDS011;58587;53.034;18.576;2022-09-09T19:46:00;47.93;;;25.80;;
70927;SDS011;58587;53.034;18.576;2022-09-09T19:48:31;50.00;;;27.02;;
70927;SDS011;58587;53.034;18.576;2022-09-09T19:51:05;49.65;;;27.02;;
70927;SDS011;58587;53.034;18.576;2022-09-09T19:53:40;54.47;;;28.10;;
70927;SDS011;58587;53.034;18.576;2022-09-09T19:56:10;56.67;;;28.43;;
70927;SDS011;58587;53.034;18.576;2022-09-09T19:58:37;50.72;;;27.77;;
70927;SDS011;58587;53.034;18.576;2022-09-09T20:01:05;51.58;;;28.25;;
70927;SDS011;58587;53.034;18.576;2022-09-09T20:03:30;48.75;;;26.55;;
70927;SDS011;58587;53.034;18.576;2022-09-09T20:05:57;53.08;;;28.13;;
70927;SDS011;58587;53.034;18.576;2022-09-09T20:08:22;49.70;;;27.83;;
70927;SDS011;58587;53.034;18.576;2022-09-09T20:10:51;53.50;;;27.73;;
70927;SDS011;58587;53.034;18.576;2022-09-09T20:13:19;52.70;;;28.50;;
70927;SDS011;58587;53.034;18.576;2022-09-09T20:15:45;52.53;;;28.00;;
70927;SDS011;58587;53.034;18.576;2022-09-09T20:18:11;55.25;;;28.08;;
70927;SDS011;58587;53.034;18.576;2022-09-09T20:20:41;52.45;;;27.63;;
70927;SDS011;58587;53.034;18.576;2022-09-09T20:23:07;53.67;;;27.42;;
70927;SDS011;58587;53.034;18.576;2022-09-09T20:25:34;56.03;;;28.27;;
70927;SDS011;58587;53.034;18.576;2022-09-09T20:28:01;50.50;;;27.25;;
70927;SDS011;58587;53.034;18.576;2022-09-09T20:30:27;54.80;;;28.03;;
70927;SDS011;58587;53.034;18.576;2022-09-09T20:32:52;52.70;;;28.03;;
70927;SDS011;58587;53.034;18.576;2022-09-09T20:35:17;59.07;;;28.77;;
70927;SDS011;58587;53.034;18.576;2022-09-09T20:37:43;54.93;;;28.50;;
70927;SDS011;58587;53.034;18.576;2022-09-09T20:40:08;54.37;;;27.73;;
70927;SDS011;58587;53.034;18.576;2022-09-09T20:42:34;50.92;;;26.60;;
70927;SDS011;58587;53.034;18.576;2022-09-09T20:44:59;52.87;;;27.23;;
70927;SDS011;58587;53.034;18.576;2022-09-09T20:47:24;52.17;;;27.03;;
70927;SDS011;58587;53.034;18.576;2022-09-09T20:49:50;53.03;;;27.57;;
70927;SDS011;58587;53.034;18.576;2022-09-09T20:52:16;52.70;;;27.17;;
70927;SDS011;58587;53.034;18.576;2022-09-09T20:54:44;52.97;;;26.58;;
70927;SDS011;58587;53.034;18.576;2022-09-09T20:57:10;52.10;;;27.50;;
70927;SDS011;58587;53.034;18.576;2022-09-09T20:59:37;52.28;;;25.60;;
70927;SDS011;58587;53.034;18.576;2022-09-09T21:02:03;50.55;;;26.45;;
70927;SDS011;58587;53.034;18.576;2022-09-09T21:04:29;52.25;;;26.85;;
70927;SDS011;58587;53.034;18.576;2022-09-09T21:06:55;54.30;;;27.00;;
70927;SDS011;58587;53.034;18.576;2022-09-09T21:09:20;49.95;;;26.55;;
70927;SDS011;58587;53.034;18.576;2022-09-09T21:11:49;53.20;;;26.85;;
70927;SDS011;58587;53.034;18.576;2022-09-09T21:14:18;53.73;;;26.20;;
70927;SDS011;58587;53.034;18.576;2022-09-09T21:16:43;51.20;;;26.97;;
70927;SDS011;58587;53.034;18.576;2022-09-09T21:19:09;53.03;;;27.45;;
70927;SDS011;58587;53.034;18.576;2022-09-09T21:21:35;55.73;;;25.80;;
70927;SDS011;58587;53.034;18.576;2022-09-09T21:24:01;53.73;;;26.40;;
70927;SDS011;58587;53.034;18.576;2022-09-09T21:26:26;53.75;;;26.40;;
70927;SDS011;58587;53.034;18.576;2022-09-09T21:28:52;54.80;;;25.93;;
70927;SDS011;58587;53.034;18.576;2022-09-09T21:31:18;51.13;;;26.20;;
70927;SDS011;58587;53.034;18.576;2022-09-09T21:33:44;51.95;;;24.88;;
70927;SDS011;58587;53.034;18.576;2022-09-09T21:36:10;51.27;;;24.30;;
70927;SDS011;58587;53.034;18.576;2022-09-09T21:38:37;53.15;;;24.27;;
70927;SDS011;58587;53.034;18.576;2022-09-09T21:41:07;51.78;;;24.05;;
70927;SDS011;58587;53.034;18.576;2022-09-09T21:43:37;55.00;;;25.40;;
70927;SDS011;58587;53.034;18.576;2022-09-09T21:46:06;51.88;;;23.67;;
70927;SDS011;58587;53.034;18.576;2022-09-09T21:48:32;52.42;;;24.40;;
70927;SDS011;58587;53.034;18.576;2022-09-09T21:51:01;53.53;;;24.50;;
70927;SDS011;58587;53.034;18.576;2022-09-09T21:53:28;55.63;;;24.08;;
70927;SDS011;58587;53.034;18.576;2022-09-09T21:55:59;53.27;;;25.10;;
70927;SDS011;58587;53.034;18.576;2022-09-09T21:58:25;54.85;;;23.95;;
70927;SDS011;58587;53.034;18.576;2022-09-09T22:00:51;54.37;;;24.60;;
70927;SDS011;58587;53.034;18.576;2022-09-09T22:03:16;53.13;;;23.33;;
70927;SDS011;58587;53.034;18.576;2022-09-09T22:05:42;55.40;;;24.33;;
70927;SDS011;58587;53.034;18.576;2022-09-09T22:08:09;56.00;;;24.20;;
70927;SDS011;58587;53.034;18.576;2022-09-09T22:10:37;52.13;;;23.88;;
70927;SDS011;58587;53.034;18.576;2022-09-09T22:13:06;52.28;;;24.35;;
70927;SDS011;58587;53.034;18.576;2022-09-09T22:15:32;53.17;;;23.67;;
70927;SDS011;58587;53.034;18.576;2022-09-09T22:17:59;54.17;;;24.83;;
70927;SDS011;58587;53.034;18.576;2022-09-09T22:20:27;55.42;;;24.35;;
70927;SDS011;58587;53.034;18.576;2022-09-09T22:22:57;57.53;;;25.65;;
70927;SDS011;58587;53.034;18.576;2022-09-09T22:25:24;54.35;;;24.38;;
70927;SDS011;58587;53.034;18.576;2022-09-09T22:27:51;55.95;;;23.63;;
70927;SDS011;58587;53.034;18.576;2022-09-09T22:30:19;55.10;;;23.87;;
70927;SDS011;58587;53.034;18.576;2022-09-09T22:32:45;55.83;;;23.77;;
70927;SDS011;58587;53.034;18.576;2022-09-09T22:35:10;52.20;;;24.00;;
70927;SDS011;58587;53.034;18.576;2022-09-09T22:37:36;57.28;;;24.55;;
70927;SDS011;58587;53.034;18.576;2022-09-09T22:40:02;54.63;;;23.97;;
70927;SDS011;58587;53.034;18.576;2022-09-09T22:42:27;53.97;;;23.53;;
70927;SDS011;58587;53.034;18.576;2022-09-09T22:44:54;55.33;;;23.08;;
70927;SDS011;58587;53.034;18.576;2022-09-09T22:47:19;54.03;;;23.50;;
70927;SDS011;58587;53.034;18.576;2022-09-09T22:49:45;54.57;;;23.33;;
70927;SDS011;58587;53.034;18.576;2022-09-09T22:52:10;60.83;;;25.10;;
70927;SDS011;58587;53.034;18.576;2022-09-09T22:54:36;64.10;;;24.37;;
70927;SDS011;58587;53.034;18.576;2022-09-09T22:57:01;56.10;;;23.27;;
70927;SDS011;58587;53.034;18.576;2022-09-09T22:59:27;62.88;;;24.83;;
70927;SDS011;58587;53.034;18.576;2022-09-09T23:01:53;63.58;;;23.52;;
70927;SDS011;58587;53.034;18.576;2022-09-09T23:04:20;58.23;;;23.17;;
70927;SDS011;58587;53.034;18.576;2022-09-09T23:06:46;69.45;;;26.50;;
70927;SDS011;58587;53.034;18.576;2022-09-09T23:09:12;61.17;;;24.17;;
70927;SDS011;58587;53.034;18.576;2022-09-09T23:11:37;62.83;;;23.58;;
70927;SDS011;58587;53.034;18.576;2022-09-09T23:14:05;57.13;;;23.90;;
70927;SDS011;58587;53.034;18.576;2022-09-09T23:16:41;59.78;;;24.08;;
70927;SDS011;58587;53.034;18.576;2022-09-09T23:19:09;62.35;;;24.52;;
70927;SDS011;58587;53.034;18.576;2022-09-09T23:21:37;63.78;;;25.45;;
